sensor_id;sensor_type;location;lat;lon;timestamp;P1;durP1;ratioP1;P2;durP2;ratioP2
35562;SDS011;21665;40.108;18.302;2024-01-11T07:28:56;36.58;;;18.17;;
35562;SDS011;21665;40.108;18.302;2024-01-11T07:31:23;32.65;;;18.02;;
35562;SDS011;21665;40.108;18.302;2024-01-11T07:33:55;33.03;;;18.40;;
35562;SDS011;21665;40.108;18.302;2024-01-11T07:36:21;30.67;;;17.40;;
35562;SDS011;21665;40.108;18.302;2024-01-11T07:38:48;30.58;;;17.15;;
35562;SDS011;21665;40.108;18.302;2024-01-11T07:41:14;39.92;;;19.98;;
35562;SDS011;21665;40.108;18.302;2024-01-11T07:43:41;36.50;;;18.77;;
35562;SDS011;21665;40.108;18.302;2024-01-11T07:46:09;27.73;;;16.38;;
35562;SDS011;21665;40.108;18.302;2024-01-11T07:48:36;33.95;;;17.35;;
35562;SDS011;21665;40.108;18.302;2024-01-11T07:51:02;30.58;;;19.02;;
35562;SDS011;21665;40.108;18.302;2024-01-11T07:53:29;27.98;;;19.05;;
35562;SDS011;21665;40.108;18.302;2024-01-11T07:55:57;35.13;;;20.42;;
35562;SDS011;21665;40.108;18.302;2024-01-11T07:58:24;31.30;;;18.48;;
35562;SDS011;21665;40.108;18.302;2024-01-11T08:00:51;28.10;;;17.90;;
35562;SDS011;21665;40.108;18.302;2024-01-11T08:03:17;29.70;;;19.38;;
35562;SDS011;21665;40.108;18.302;2024-01-11T08:05:43;32.83;;;22.02;;
35562;SDS011;21665;40.108;18.302;2024-01-11T08:08:10;36.55;;;23.25;;
35562;SDS011;21665;40.108;18.302;2024-01-11T08:10:36;35.30;;;23.25;;
35562;SDS011;21665;40.108;18.302;2024-01-11T08:13:03;37.42;;;23.90;;
35562;SDS011;21665;40.108;18.302;2024-01-11T08:15:29;36.25;;;25.00;;
35562;SDS011;21665;40.108;18.302;2024-01-11T08:17:56;36.20;;;25.02;;
35562;SDS011;21665;40.108;18.302;2024-01-11T08:20:22;33.10;;;24.63;;
35562;SDS011;21665;40.108;18.302;2024-01-11T08:22:49;35.03;;;24.65;;
35562;SDS011;21665;40.108;18.302;2024-01-11T08:25:15;37.05;;;24.30;;
35562;SDS011;21665;40.108;18.302;2024-01-11T08:27:42;33.95;;;24.88;;
35562;SDS011;21665;40.108;18.302;2024-01-11T08:30:11;38.10;;;24.65;;
35562;SDS011;21665;40.108;18.302;2024-01-11T08:32:39;36.00;;;25.10;;
35562;SDS011;21665;40.108;18.302;2024-01-11T08:35:08;32.25;;;22.17;;
35562;SDS011;21665;40.108;18.302;2024-01-11T08:37:39;27.90;;;23.13;;
35562;SDS011;21665;40.108;18.302;2024-01-11T08:40:10;24.17;;;21.60;;
35562;SDS011;21665;40.108;18.302;2024-01-11T08:42:37;24.65;;;21.98;;
35562;SDS011;21665;40.108;18.302;2024-01-11T08:45:08;22.48;;;20.38;;
35562;SDS011;21665;40.108;18.302;2024-01-11T08:47:35;23.20;;;21.00;;
35562;SDS011;21665;40.108;18.302;2024-01-11T08:50:04;22.05;;;20.05;;
35562;SDS011;21665;40.108;18.302;2024-01-11T08:52:32;21.85;;;19.77;;
35562;SDS011;21665;40.108;18.302;2024-01-11T08:54:59;22.45;;;20.50;;
35562;SDS011;21665;40.108;18.302;2024-01-11T08:57:32;21.95;;;19.95;;
35562;SDS011;21665;40.108;18.302;2024-01-11T09:00:01;21.75;;;19.88;;
35562;SDS011;21665;40.108;18.302;2024-01-11T09:02:29;21.48;;;19.88;;
35562;SDS011;21665;40.108;18.302;2024-01-11T09:04:56;23.10;;;21.17;;
35562;SDS011;21665;40.108;18.302;2024-01-11T09:07:23;21.70;;;20.10;;
35562;SDS011;21665;40.108;18.302;2024-01-11T09:09:50;22.65;;;20.77;;
35562;SDS011;21665;40.108;18.302;2024-01-11T09:12:16;23.83;;;21.88;;
35562;SDS011;21665;40.108;18.302;2024-01-11T09:14:44;23.98;;;22.27;;
35562;SDS011;21665;40.108;18.302;2024-01-11T09:17:10;24.70;;;22.90;;
35562;SDS011;21665;40.108;18.302;2024-01-11T09:19:36;25.70;;;23.80;;
35562;SDS011;21665;40.108;18.302;2024-01-11T09:22:05;24.83;;;23.17;;
35562;SDS011;21665;40.108;18.302;2024-01-11T09:24:35;26.25;;;24.23;;
35562;SDS011;21665;40.108;18.302;2024-01-11T09:27:01;27.33;;;25.42;;
35562;SDS011;21665;40.108;18.302;2024-01-11T09:29:29;28.23;;;26.35;;
35562;SDS011;21665;40.108;18.302;2024-01-11T09:31:56;30.08;;;28.17;;
35562;SDS011;21665;40.108;18.302;2024-01-11T09:34:23;31.63;;;29.52;;
35562;SDS011;21665;40.108;18.302;2024-01-11T09:36:49;31.58;;;29.48;;
35562;SDS011;21665;40.108;18.302;2024-01-11T09:39:16;31.73;;;29.63;;
35562;SDS011;21665;40.108;18.302;2024-01-11T09:41:43;31.30;;;29.25;;
35562;SDS011;21665;40.108;18.302;2024-01-11T09:44:18;31.85;;;29.65;;
35562;SDS011;21665;40.108;18.302;2024-01-11T09:46:45;31.35;;;29.05;;
35562;SDS011;21665;40.108;18.302;2024-01-11T09:49:12;31.25;;;29.15;;
35562;SDS011;21665;40.108;18.302;2024-01-11T09:51:42;30.98;;;28.95;;
35562;SDS011;21665;40.108;18.302;2024-01-11T09:54:11;31.02;;;28.95;;
35562;SDS011;21665;40.108;18.302;2024-01-11T09:56:39;31.20;;;29.00;;
35562;SDS011;21665;40.108;18.302;2024-01-11T09:59:07;31.23;;;28.70;;
35562;SDS011;21665;40.108;18.302;2024-01-11T10:01:37;31.83;;;29.63;;
35562;SDS011;21665;40.108;18.302;2024-01-11T10:04:10;32.33;;;30.02;;
35562;SDS011;21665;40.108;18.302;2024-01-11T10:06:38;30.08;;;28.02;;
35562;SDS011;21665;40.108;18.302;2024-01-11T10:09:05;27.75;;;25.85;;
35562;SDS011;21665;40.108;18.302;2024-01-11T10:11:32;26.45;;;24.45;;
35562;SDS011;21665;40.108;18.302;2024-01-11T10:14:00;27.42;;;25.40;;
35562;SDS011;21665;40.108;18.302;2024-01-11T10:16:27;27.33;;;25.42;;
35562;SDS011;21665;40.108;18.302;2024-01-11T10:19:00;27.60;;;25.50;;
35562;SDS011;21665;40.108;18.302;2024-01-11T10:21:26;28.08;;;25.73;;
35562;SDS011;21665;40.108;18.302;2024-01-11T10:23:57;29.48;;;27.27;;
35562;SDS011;21665;40.108;18.302;2024-01-11T10:26:24;28.83;;;26.48;;
35562;SDS011;21665;40.108;18.302;2024-01-11T10:28:51;29.02;;;27.13;;
35562;SDS011;21665;40.108;18.302;2024-01-11T10:31:17;28.25;;;26.15;;
35562;SDS011;21665;40.108;18.302;2024-01-11T10:33:44;28.65;;;26.67;;
35562;SDS011;21665;40.108;18.302;2024-01-11T10:36:11;29.20;;;27.15;;
35562;SDS011;21665;40.108;18.302;2024-01-11T10:38:40;28.55;;;26.65;;
35562;SDS011;21665;40.108;18.302;2024-01-11T10:41:11;30.15;;;28.15;;
35562;SDS011;21665;40.108;18.302;2024-01-11T10:46:09;29.95;;;28.05;;
35562;SDS011;21665;40.108;18.302;2024-01-11T10:48:38;30.00;;;28.10;;
35562;SDS011;21665;40.108;18.302;2024-01-11T10:51:09;30.33;;;28.33;;
35562;SDS011;21665;40.108;18.302;2024-01-11T10:53:44;30.35;;;28.52;;
35562;SDS011;21665;40.108;18.302;2024-01-11T10:56:16;30.52;;;28.45;;
35562;SDS011;21665;40.108;18.302;2024-01-11T10:58:43;31.40;;;29.30;;
35562;SDS011;21665;40.108;18.302;2024-01-11T11:01:11;31.33;;;29.23;;
35562;SDS011;21665;40.108;18.302;2024-01-11T11:03:39;31.00;;;29.00;;
35562;SDS011;21665;40.108;18.302;2024-01-11T11:06:09;30.92;;;28.77;;
35562;SDS011;21665;40.108;18.302;2024-01-11T11:08:40;30.27;;;28.25;;
35562;SDS011;21665;40.108;18.302;2024-01-11T11:11:09;31.20;;;29.10;;
35562;SDS011;21665;40.108;18.302;2024-01-11T11:13:37;30.48;;;28.45;;
35562;SDS011;21665;40.108;18.302;2024-01-11T11:16:04;30.45;;;28.35;;
35562;SDS011;21665;40.108;18.302;2024-01-11T11:18:31;30.58;;;28.48;;
35562;SDS011;21665;40.108;18.302;2024-01-11T11:21:01;29.65;;;27.67;;
35562;SDS011;21665;40.108;18.302;2024-01-11T11:23:32;31.00;;;28.83;;
35562;SDS011;21665;40.108;18.302;2024-01-11T11:25:59;30.15;;;27.95;;
35562;SDS011;21665;40.108;18.302;2024-01-11T11:28:25;29.92;;;27.83;;
35562;SDS011;21665;40.108;18.302;2024-01-11T11:30:52;29.65;;;27.75;;
35562;SDS011;21665;40.108;18.302;2024-01-11T11:33:25;30.77;;;28.63;;
35562;SDS011;21665;40.108;18.302;2024-01-11T11:35:57;30.88;;;28.73;;
35562;SDS011;21665;40.108;18.302;2024-01-11T11:38:28;30.75;;;28.40;;
35562;SDS011;21665;40.108;18.302;2024-01-11T11:40:57;30.42;;;28.40;;
35562;SDS011;21665;40.108;18.302;2024-01-11T11:43:26;30.27;;;28.38;;
35562;SDS011;21665;40.108;18.302;2024-01-11T11:45:53;30.55;;;28.40;;
35562;SDS011;21665;40.108;18.302;2024-01-11T11:53:33;29.48;;;27.45;;
35562;SDS011;21665;40.108;18.302;2024-01-11T11:56:00;30.63;;;28.40;;
35562;SDS011;21665;40.108;18.302;2024-01-11T11:58:27;29.63;;;27.52;;
35562;SDS011;21665;40.108;18.302;2024-01-11T12:00:55;30.33;;;28.10;;
35562;SDS011;21665;40.108;18.302;2024-01-11T12:03:28;30.67;;;28.33;;
35562;SDS011;21665;40.108;18.302;2024-01-11T12:05:57;29.02;;;27.13;;
35562;SDS011;21665;40.108;18.302;2024-01-11T12:08:24;29.08;;;26.98;;
35562;SDS011;21665;40.108;18.302;2024-01-11T12:10:51;29.40;;;27.50;;
35562;SDS011;21665;40.108;18.302;2024-01-11T12:13:17;29.55;;;27.42;;
35562;SDS011;21665;40.108;18.302;2024-01-11T12:15:44;29.55;;;27.63;;
35562;SDS011;21665;40.108;18.302;2024-01-11T12:18:14;28.25;;;26.35;;
35562;SDS011;21665;40.108;18.302;2024-01-11T12:20:41;29.15;;;27.20;;
35562;SDS011;21665;40.108;18.302;2024-01-11T12:23:07;29.40;;;27.50;;
35562;SDS011;21665;40.108;18.302;2024-01-11T12:25:34;29.35;;;27.42;;
35562;SDS011;21665;40.108;18.302;2024-01-11T12:28:01;29.02;;;27.02;;
35562;SDS011;21665;40.108;18.302;2024-01-11T12:30:28;28.35;;;26.55;;
35562;SDS011;21665;40.108;18.302;2024-01-11T12:32:55;28.65;;;26.73;;
35562;SDS011;21665;40.108;18.302;2024-01-11T12:35:22;28.90;;;26.90;;
35562;SDS011;21665;40.108;18.302;2024-01-11T12:38:07;28.65;;;26.75;;
35562;SDS011;21665;40.108;18.302;2024-01-11T12:40:36;28.55;;;26.73;;
35562;SDS011;21665;40.108;18.302;2024-01-11T12:43:04;28.80;;;27.00;;
35562;SDS011;21665;40.108;18.302;2024-01-11T12:45:31;29.50;;;27.50;;
35562;SDS011;21665;40.108;18.302;2024-01-11T12:47:59;30.92;;;28.73;;
35562;SDS011;21665;40.108;18.302;2024-01-11T12:50:26;30.15;;;28.05;;
35562;SDS011;21665;40.108;18.302;2024-01-11T12:53:07;30.52;;;28.48;;
35562;SDS011;21665;40.108;18.302;2024-01-11T12:55:45;30.48;;;28.48;;
35562;SDS011;21665;40.108;18.302;2024-01-11T12:58:19;31.15;;;28.90;;
35562;SDS011;21665;40.108;18.302;2024-01-11T13:00:47;30.23;;;28.25;;
35562;SDS011;21665;40.108;18.302;2024-01-11T13:03:14;31.50;;;29.20;;
35562;SDS011;21665;40.108;18.302;2024-01-11T13:05:41;31.60;;;29.17;;
35562;SDS011;21665;40.108;18.302;2024-01-11T13:08:07;30.83;;;28.65;;
35562;SDS011;21665;40.108;18.302;2024-01-11T13:10:34;30.27;;;28.13;;
35562;SDS011;21665;40.108;18.302;2024-01-11T13:13:01;30.42;;;28.33;;
35562;SDS011;21665;40.108;18.302;2024-01-11T13:15:29;30.45;;;28.40;;
35562;SDS011;21665;40.108;18.302;2024-01-11T13:18:04;30.38;;;28.27;;
35562;SDS011;21665;40.108;18.302;2024-01-11T13:20:30;29.85;;;27.88;;
35562;SDS011;21665;40.108;18.302;2024-01-11T13:23:16;30.48;;;28.45;;
35562;SDS011;21665;40.108;18.302;2024-01-11T13:25:50;30.60;;;28.42;;
35562;SDS011;21665;40.108;18.302;2024-01-11T13:28:17;30.77;;;28.45;;
35562;SDS011;21665;40.108;18.302;2024-01-11T13:30:47;31.23;;;28.92;;
35562;SDS011;21665;40.108;18.302;2024-01-11T13:33:16;30.83;;;28.67;;
35562;SDS011;21665;40.108;18.302;2024-01-11T13:35:48;30.50;;;28.38;;
35562;SDS011;21665;40.108;18.302;2024-01-11T13:38:23;31.45;;;29.17;;
35562;SDS011;21665;40.108;18.302;2024-01-11T13:40:50;30.42;;;28.35;;
35562;SDS011;21665;40.108;18.302;2024-01-11T13:43:16;30.67;;;28.58;;
35562;SDS011;21665;40.108;18.302;2024-01-11T13:45:43;30.77;;;28.75;;
35562;SDS011;21665;40.108;18.302;2024-01-11T13:48:12;29.70;;;27.70;;
35562;SDS011;21665;40.108;18.302;2024-01-11T13:50:41;30.58;;;28.48;;
35562;SDS011;21665;40.108;18.302;2024-01-11T13:53:10;30.85;;;28.58;;
35562;SDS011;21665;40.108;18.302;2024-01-11T13:55:37;30.58;;;28.30;;
35562;SDS011;21665;40.108;18.302;2024-01-11T13:58:03;28.92;;;26.83;;
35562;SDS011;21665;40.108;18.302;2024-01-11T14:00:30;30.17;;;27.67;;
35562;SDS011;21665;40.108;18.302;2024-01-11T14:02:57;29.92;;;27.63;;
35562;SDS011;21665;40.108;18.302;2024-01-11T14:05:24;29.23;;;27.23;;
35562;SDS011;21665;40.108;18.302;2024-01-11T14:07:51;28.80;;;26.73;;
35562;SDS011;21665;40.108;18.302;2024-01-11T14:10:23;28.17;;;26.00;;
35562;SDS011;21665;40.108;18.302;2024-01-11T14:12:50;28.60;;;26.42;;
35562;SDS011;21665;40.108;18.302;2024-01-11T14:15:17;28.02;;;26.02;;
35562;SDS011;21665;40.108;18.302;2024-01-11T14:17:44;28.17;;;26.00;;
35562;SDS011;21665;40.108;18.302;2024-01-11T14:20:11;27.88;;;25.77;;
35562;SDS011;21665;40.108;18.302;2024-01-11T14:22:44;28.40;;;26.27;;
35562;SDS011;21665;40.108;18.302;2024-01-11T14:25:18;28.42;;;26.40;;
35562;SDS011;21665;40.108;18.302;2024-01-11T14:27:45;27.92;;;25.85;;
35562;SDS011;21665;40.108;18.302;2024-01-11T14:30:13;27.65;;;25.50;;
35562;SDS011;21665;40.108;18.302;2024-01-11T14:32:40;28.27;;;25.85;;
35562;SDS011;21665;40.108;18.302;2024-01-11T14:35:08;27.33;;;25.05;;
35562;SDS011;21665;40.108;18.302;2024-01-11T14:37:36;27.55;;;25.35;;
35562;SDS011;21665;40.108;18.302;2024-01-11T14:40:05;27.20;;;24.85;;
35562;SDS011;21665;40.108;18.302;2024-01-11T14:42:33;27.50;;;25.40;;
35562;SDS011;21665;40.108;18.302;2024-01-11T14:45:00;26.58;;;24.58;;
35562;SDS011;21665;40.108;18.302;2024-01-11T14:47:27;27.13;;;24.65;;
35562;SDS011;21665;40.108;18.302;2024-01-11T14:49:54;26.30;;;24.20;;
35562;SDS011;21665;40.108;18.302;2024-01-11T14:52:21;26.85;;;24.65;;
35562;SDS011;21665;40.108;18.302;2024-01-11T14:54:48;26.50;;;24.10;;
35562;SDS011;21665;40.108;18.302;2024-01-11T14:57:16;25.88;;;23.88;;
35562;SDS011;21665;40.108;18.302;2024-01-11T14:59:43;26.23;;;23.92;;
35562;SDS011;21665;40.108;18.302;2024-01-11T15:02:12;26.08;;;23.52;;
35562;SDS011;21665;40.108;18.302;2024-01-11T15:04:39;26.10;;;23.90;;
35562;SDS011;21665;40.108;18.302;2024-01-11T15:07:05;26.42;;;23.92;;
35562;SDS011;21665;40.108;18.302;2024-01-11T15:09:33;25.67;;;23.17;;
35562;SDS011;21665;40.108;18.302;2024-01-11T15:12:04;25.08;;;23.08;;
35562;SDS011;21665;40.108;18.302;2024-01-11T15:14:30;24.95;;;22.85;;
35562;SDS011;21665;40.108;18.302;2024-01-11T15:16:58;25.02;;;22.75;;
35562;SDS011;21665;40.108;18.302;2024-01-11T15:19:25;25.73;;;23.42;;
35562;SDS011;21665;40.108;18.302;2024-01-11T15:21:51;24.25;;;22.35;;
35562;SDS011;21665;40.108;18.302;2024-01-11T15:24:18;24.88;;;22.50;;
35562;SDS011;21665;40.108;18.302;2024-01-11T15:26:45;23.17;;;21.38;;
35562;SDS011;21665;40.108;18.302;2024-01-11T15:29:14;23.65;;;21.70;;
35562;SDS011;21665;40.108;18.302;2024-01-11T15:31:40;22.60;;;20.58;;
35562;SDS011;21665;40.108;18.302;2024-01-11T15:34:10;22.90;;;20.80;;
35562;SDS011;21665;40.108;18.302;2024-01-11T15:36:37;23.00;;;20.90;;
35562;SDS011;21665;40.108;18.302;2024-01-11T15:39:05;22.25;;;20.35;;
35562;SDS011;21665;40.108;18.302;2024-01-11T15:41:33;22.92;;;20.73;;
35562;SDS011;21665;40.108;18.302;2024-01-11T15:43:59;23.38;;;21.27;;
35562;SDS011;21665;40.108;18.302;2024-01-11T15:46:26;24.13;;;22.02;;
35562;SDS011;21665;40.108;18.302;2024-01-11T15:48:52;23.60;;;21.38;;
35562;SDS011;21665;40.108;18.302;2024-01-11T15:51:19;23.95;;;21.65;;
35562;SDS011;21665;40.108;18.302;2024-01-11T15:53:45;23.77;;;21.38;;
35562;SDS011;21665;40.108;18.302;2024-01-11T15:56:12;25.83;;;22.42;;
35562;SDS011;21665;40.108;18.302;2024-01-11T15:58:39;22.77;;;20.73;;
35562;SDS011;21665;40.108;18.302;2024-01-11T16:01:07;23.50;;;21.38;;
35562;SDS011;21665;40.108;18.302;2024-01-11T16:03:35;23.60;;;21.60;;
35562;SDS011;21665;40.108;18.302;2024-01-11T16:06:02;23.40;;;21.38;;
35562;SDS011;21665;40.108;18.302;2024-01-11T16:08:28;24.75;;;22.40;;
35562;SDS011;21665;40.108;18.302;2024-01-11T16:10:54;24.95;;;22.48;;
35562;SDS011;21665;40.108;18.302;2024-01-11T16:13:21;23.45;;;21.48;;
35562;SDS011;21665;40.108;18.302;2024-01-11T16:15:47;26.25;;;23.80;;
35562;SDS011;21665;40.108;18.302;2024-01-11T16:18:14;25.85;;;23.13;;
35562;SDS011;21665;40.108;18.302;2024-01-11T16:20:42;26.40;;;23.75;;
35562;SDS011;21665;40.108;18.302;2024-01-11T16:23:09;26.13;;;23.52;;
35562;SDS011;21665;40.108;18.302;2024-01-11T16:25:38;25.70;;;23.33;;
35562;SDS011;21665;40.108;18.302;2024-01-11T16:28:05;25.25;;;22.63;;
35562;SDS011;21665;40.108;18.302;2024-01-11T16:30:31;24.52;;;22.13;;
35562;SDS011;21665;40.108;18.302;2024-01-11T16:32:57;25.27;;;22.90;;
35562;SDS011;21665;40.108;18.302;2024-01-11T16:35:25;25.05;;;22.02;;
35562;SDS011;21665;40.108;18.302;2024-01-11T16:37:51;25.65;;;23.15;;
35562;SDS011;21665;40.108;18.302;2024-01-11T16:40:17;25.42;;;22.83;;
35562;SDS011;21665;40.108;18.302;2024-01-11T16:42:44;24.45;;;22.10;;
35562;SDS011;21665;40.108;18.302;2024-01-11T16:45:10;26.65;;;21.75;;
35562;SDS011;21665;40.108;18.302;2024-01-11T16:47:37;25.23;;;22.55;;
35562;SDS011;21665;40.108;18.302;2024-01-11T16:50:04;25.02;;;21.77;;
35562;SDS011;21665;40.108;18.302;2024-01-11T16:52:32;28.35;;;22.65;;
35562;SDS011;21665;40.108;18.302;2024-01-11T16:54:58;22.10;;;19.75;;
35562;SDS011;21665;40.108;18.302;2024-01-11T16:57:25;29.40;;;20.27;;
35562;SDS011;21665;40.108;18.302;2024-01-11T16:59:52;22.05;;;19.60;;
35562;SDS011;21665;40.108;18.302;2024-01-11T17:02:20;25.52;;;19.92;;
35562;SDS011;21665;40.108;18.302;2024-01-11T17:04:49;23.13;;;19.40;;
35562;SDS011;21665;40.108;18.302;2024-01-11T17:07:15;22.48;;;20.08;;
35562;SDS011;21665;40.108;18.302;2024-01-11T17:09:41;22.35;;;18.40;;
35562;SDS011;21665;40.108;18.302;2024-01-11T17:12:08;21.40;;;18.50;;
35562;SDS011;21665;40.108;18.302;2024-01-11T17:14:34;29.92;;;21.00;;
35562;SDS011;21665;40.108;18.302;2024-01-11T17:17:00;22.30;;;20.00;;
35562;SDS011;21665;40.108;18.302;2024-01-11T17:19:28;47.60;;;26.23;;
35562;SDS011;21665;40.108;18.302;2024-01-11T17:21:55;30.70;;;22.02;;
35562;SDS011;21665;40.108;18.302;2024-01-11T17:24:21;24.33;;;18.95;;
35562;SDS011;21665;40.108;18.302;2024-01-11T17:26:47;32.80;;;21.00;;
35562;SDS011;21665;40.108;18.302;2024-01-11T17:29:14;26.33;;;19.63;;
35562;SDS011;21665;40.108;18.302;2024-01-11T17:31:40;26.15;;;21.20;;
35562;SDS011;21665;40.108;18.302;2024-01-11T17:34:10;26.65;;;19.58;;
35562;SDS011;21665;40.108;18.302;2024-01-11T17:36:36;23.17;;;20.23;;
35562;SDS011;21665;40.108;18.302;2024-01-11T17:39:02;20.92;;;18.58;;
35562;SDS011;21665;40.108;18.302;2024-01-11T17:41:29;19.70;;;17.70;;
35562;SDS011;21665;40.108;18.302;2024-01-11T17:43:56;21.48;;;19.27;;
35562;SDS011;21665;40.108;18.302;2024-01-11T17:46:25;22.23;;;19.52;;
35562;SDS011;21665;40.108;18.302;2024-01-11T17:48:53;22.90;;;20.25;;
35562;SDS011;21665;40.108;18.302;2024-01-11T17:51:19;22.52;;;19.75;;
35562;SDS011;21665;40.108;18.302;2024-01-11T17:53:46;23.20;;;20.00;;
35562;SDS011;21665;40.108;18.302;2024-01-11T17:56:17;24.05;;;20.58;;
35562;SDS011;21665;40.108;18.302;2024-01-11T17:58:47;22.27;;;19.90;;
35562;SDS011;21665;40.108;18.302;2024-01-11T18:01:24;22.80;;;19.10;;
35562;SDS011;21665;40.108;18.302;2024-01-11T18:03:51;21.25;;;19.00;;
35562;SDS011;21665;40.108;18.302;2024-01-11T18:06:17;21.30;;;19.08;;
35562;SDS011;21665;40.108;18.302;2024-01-11T18:08:44;23.48;;;20.90;;
35562;SDS011;21665;40.108;18.302;2024-01-11T18:11:13;27.20;;;21.67;;
35562;SDS011;21665;40.108;18.302;2024-01-11T18:13:40;21.65;;;19.55;;
35562;SDS011;21665;40.108;18.302;2024-01-11T18:16:06;28.27;;;20.45;;
35562;SDS011;21665;40.108;18.302;2024-01-11T18:18:33;23.33;;;20.30;;
35562;SDS011;21665;40.108;18.302;2024-01-11T18:21:00;23.45;;;20.80;;
35562;SDS011;21665;40.108;18.302;2024-01-11T18:23:27;24.20;;;21.63;;
35562;SDS011;21665;40.108;18.302;2024-01-11T18:25:54;24.90;;;22.27;;
35562;SDS011;21665;40.108;18.302;2024-01-11T18:28:21;26.20;;;22.98;;
35562;SDS011;21665;40.108;18.302;2024-01-11T18:30:47;28.98;;;24.00;;
35562;SDS011;21665;40.108;18.302;2024-01-11T18:33:13;27.15;;;22.25;;
35562;SDS011;21665;40.108;18.302;2024-01-11T18:35:40;26.77;;;22.73;;
35562;SDS011;21665;40.108;18.302;2024-01-11T18:38:13;24.85;;;22.35;;
35562;SDS011;21665;40.108;18.302;2024-01-11T18:40:45;24.45;;;21.95;;
35562;SDS011;21665;40.108;18.302;2024-01-11T18:43:18;25.97;;;23.47;;
35562;SDS011;21665;40.108;18.302;2024-01-11T18:45:55;25.60;;;22.85;;
35562;SDS011;21665;40.108;18.302;2024-01-11T18:48:31;27.38;;;23.90;;
35562;SDS011;21665;40.108;18.302;2024-01-11T18:51:08;27.13;;;24.35;;
35562;SDS011;21665;40.108;18.302;2024-01-11T18:53:47;25.10;;;22.60;;
35562;SDS011;21665;40.108;18.302;2024-01-11T18:56:29;26.65;;;23.98;;
35562;SDS011;21665;40.108;18.302;2024-01-11T18:59:14;25.48;;;22.98;;
35562;SDS011;21665;40.108;18.302;2024-01-11T19:01:51;25.67;;;23.08;;
35562;SDS011;21665;40.108;18.302;2024-01-11T19:04:31;26.15;;;23.65;;
35562;SDS011;21665;40.108;18.302;2024-01-11T19:07:02;27.85;;;24.83;;
35562;SDS011;21665;40.108;18.302;2024-01-11T19:09:40;26.45;;;23.80;;
35562;SDS011;21665;40.108;18.302;2024-01-11T19:12:15;26.25;;;23.55;;
35562;SDS011;21665;40.108;18.302;2024-01-11T19:14:43;27.40;;;24.52;;
35562;SDS011;21665;40.108;18.302;2024-01-11T19:17:27;26.42;;;23.60;;
35562;SDS011;21665;40.108;18.302;2024-01-11T19:20:08;27.08;;;24.17;;
35562;SDS011;21665;40.108;18.302;2024-01-11T19:22:35;26.45;;;23.83;;
35562;SDS011;21665;40.108;18.302;2024-01-11T19:25:01;26.60;;;23.80;;
35562;SDS011;21665;40.108;18.302;2024-01-11T19:27:30;26.55;;;23.92;;
35562;SDS011;21665;40.108;18.302;2024-01-11T19:29:56;27.70;;;24.90;;
35562;SDS011;21665;40.108;18.302;2024-01-11T19:32:23;29.80;;;25.92;;
35562;SDS011;21665;40.108;18.302;2024-01-11T19:34:53;33.75;;;27.63;;
35562;SDS011;21665;40.108;18.302;2024-01-11T19:37:19;28.17;;;25.17;;
35562;SDS011;21665;40.108;18.302;2024-01-11T19:39:46;28.60;;;25.63;;
35562;SDS011;21665;40.108;18.302;2024-01-11T19:42:15;31.20;;;26.67;;
35562;SDS011;21665;40.108;18.302;2024-01-11T19:44:42;28.55;;;25.50;;
35562;SDS011;21665;40.108;18.302;2024-01-11T19:47:08;29.33;;;26.33;;
35562;SDS011;21665;40.108;18.302;2024-01-11T19:49:35;32.65;;;27.38;;
35562;SDS011;21665;40.108;18.302;2024-01-11T19:52:02;30.27;;;27.15;;
35562;SDS011;21665;40.108;18.302;2024-01-11T19:54:29;32.30;;;27.02;;
35562;SDS011;21665;40.108;18.302;2024-01-11T19:56:56;33.95;;;28.05;;
35562;SDS011;21665;40.108;18.302;2024-01-11T19:59:22;29.45;;;26.50;;
35562;SDS011;21665;40.108;18.302;2024-01-11T20:01:50;29.52;;;26.40;;
35562;SDS011;21665;40.108;18.302;2024-01-11T20:04:16;31.20;;;26.08;;
35562;SDS011;21665;40.108;18.302;2024-01-11T20:06:42;32.17;;;27.77;;
35562;SDS011;21665;40.108;18.302;2024-01-11T20:09:11;30.10;;;26.95;;
35562;SDS011;21665;40.108;18.302;2024-01-11T20:11:41;35.42;;;26.88;;
35562;SDS011;21665;40.108;18.302;2024-01-11T20:14:07;31.20;;;27.85;;
35562;SDS011;21665;40.108;18.302;2024-01-11T20:16:35;33.80;;;27.75;;
35562;SDS011;21665;40.108;18.302;2024-01-11T20:19:05;32.10;;;27.60;;
35562;SDS011;21665;40.108;18.302;2024-01-11T20:21:31;33.72;;;28.20;;
35562;SDS011;21665;40.108;18.302;2024-01-11T20:23:58;33.92;;;28.08;;
35562;SDS011;21665;40.108;18.302;2024-01-11T20:26:24;34.38;;;29.20;;
35562;SDS011;21665;40.108;18.302;2024-01-11T20:28:51;32.00;;;28.52;;
35562;SDS011;21665;40.108;18.302;2024-01-11T20:31:18;33.22;;;28.60;;
35562;SDS011;21665;40.108;18.302;2024-01-11T20:33:46;33.80;;;28.77;;
35562;SDS011;21665;40.108;18.302;2024-01-11T20:36:13;36.63;;;28.80;;
35562;SDS011;21665;40.108;18.302;2024-01-11T20:38:39;34.97;;;28.30;;
35562;SDS011;21665;40.108;18.302;2024-01-11T20:41:10;31.77;;;27.17;;
35562;SDS011;21665;40.108;18.302;2024-01-11T20:43:39;33.92;;;26.40;;
35562;SDS011;21665;40.108;18.302;2024-01-11T20:46:07;34.00;;;27.88;;
35562;SDS011;21665;40.108;18.302;2024-01-11T20:48:33;31.13;;;26.95;;
35562;SDS011;21665;40.108;18.302;2024-01-11T20:51:00;32.83;;;27.48;;
35562;SDS011;21665;40.108;18.302;2024-01-11T20:53:27;33.72;;;27.80;;
35562;SDS011;21665;40.108;18.302;2024-01-11T20:55:54;33.33;;;27.45;;
35562;SDS011;21665;40.108;18.302;2024-01-11T20:58:20;38.72;;;28.23;;
35562;SDS011;21665;40.108;18.302;2024-01-11T21:00:47;31.70;;;27.70;;
35562;SDS011;21665;40.108;18.302;2024-01-11T21:03:13;34.78;;;27.23;;
35562;SDS011;21665;40.108;18.302;2024-01-11T21:05:40;32.08;;;27.40;;
35562;SDS011;21665;40.108;18.302;2024-01-11T21:08:07;30.40;;;26.13;;
35562;SDS011;21665;40.108;18.302;2024-01-11T21:10:34;35.20;;;26.92;;
35562;SDS011;21665;40.108;18.302;2024-01-11T21:13:04;36.60;;;27.25;;
35562;SDS011;21665;40.108;18.302;2024-01-11T21:15:31;32.13;;;26.92;;
35562;SDS011;21665;40.108;18.302;2024-01-11T21:17:57;29.05;;;25.77;;
35562;SDS011;21665;40.108;18.302;2024-01-11T21:20:29;35.58;;;25.85;;
35562;SDS011;21665;40.108;18.302;2024-01-11T21:22:59;28.55;;;24.65;;
35562;SDS011;21665;40.108;18.302;2024-01-11T21:25:26;29.33;;;24.52;;
35562;SDS011;21665;40.108;18.302;2024-01-11T21:27:53;27.98;;;24.17;;
35562;SDS011;21665;40.108;18.302;2024-01-11T21:30:20;27.75;;;23.30;;
35562;SDS011;21665;40.108;18.302;2024-01-11T21:32:48;25.77;;;22.98;;
35562;SDS011;21665;40.108;18.302;2024-01-11T21:35:14;28.88;;;23.73;;
35562;SDS011;21665;40.108;18.302;2024-01-11T21:37:46;29.48;;;23.42;;
35562;SDS011;21665;40.108;18.302;2024-01-11T21:40:13;27.15;;;21.52;;
35562;SDS011;21665;40.108;18.302;2024-01-11T21:42:45;25.88;;;21.45;;
35562;SDS011;21665;40.108;18.302;2024-01-11T21:45:15;26.35;;;21.60;;
35562;SDS011;21665;40.108;18.302;2024-01-11T21:47:42;22.33;;;19.92;;
35562;SDS011;21665;40.108;18.302;2024-01-11T21:50:09;24.17;;;20.38;;